createdAt,value
2022-11-29T00:00:23.183Z,-2.31
2022-11-29T00:03:32.295Z,-2.15
2022-11-29T00:06:40.378Z,-2.18
2022-11-29T00:09:47.300Z,-2.10
2022-11-29T00:12:53.488Z,-2.02
2022-11-29T00:16:06.743Z,-2.16
2022-11-29T00:19:15.641Z,-2.24
2022-11-29T00:22:23.980Z,-2.23
2022-11-29T00:25:30.637Z,-2.11
2022-11-29T00:28:39.761Z,-1.99
2022-11-29T00:31:49.011Z,-2.04
2022-11-29T00:34:59.390Z,-2.08
2022-11-29T00:38:05.842Z,-2.14
2022-11-29T00:41:14.547Z,-2.17
2022-11-29T00:44:20.960Z,-2.19
2022-11-29T00:47:30.846Z,-2.03
2022-11-29T00:50:36.969Z,-2.30
2022-11-29T00:53:44.113Z,-2.39
2022-11-29T00:56:50.209Z,-2.39
2022-11-29T00:59:57.302Z,-2.37
2022-11-29T01:03:06.248Z,-2.45
2022-11-29T01:06:16.395Z,-2.35
2022-11-29T01:09:23.373Z,-2.47
2022-11-29T01:12:30.234Z,-2.35
2022-11-29T01:15:36.847Z,-2.46
2022-11-29T01:18:47.232Z,-2.41
2022-11-29T01:21:53.357Z,-2.41
2022-11-29T01:25:00.196Z,-2.38
2022-11-29T01:28:08.009Z,-2.34
2022-11-29T01:31:19.019Z,-2.47
2022-11-29T01:34:27.782Z,-2.49
2022-11-29T01:37:35.895Z,-2.61
2022-11-29T01:40:42.052Z,-2.69
2022-11-29T01:44:05.445Z,-2.77
2022-11-29T01:47:14.725Z,-2.60
2022-11-29T01:50:25.123Z,-2.49
2022-11-29T01:53:32.784Z,-2.45
2022-11-29T01:56:42.150Z,-2.39
2022-11-29T01:59:53.674Z,-2.46
2022-11-29T02:03:12.508Z,-2.40
2022-11-29T02:06:21.865Z,-2.49
2022-11-29T02:09:29.067Z,-2.54
2022-11-29T02:12:57.451Z,-2.68
2022-11-29T02:16:16.140Z,-2.56
2022-11-29T02:20:02.399Z,-2.56
2022-11-29T02:24:02.676Z,-2.78
2022-11-29T02:28:08.800Z,-2.82
2022-11-29T02:31:58.161Z,-2.58
2022-11-29T02:35:31.835Z,-2.60
2022-11-29T02:39:32.027Z,-2.60
2022-11-29T02:48:02.944Z,-2.49
2022-11-29T02:51:25.149Z,-2.56
2022-11-29T02:54:46.410Z,-2.49
2022-11-29T02:58:09.418Z,-2.46
2022-11-29T03:01:28.965Z,-2.52
2022-11-29T03:04:53.384Z,-2.58
2022-11-29T03:08:19.678Z,-2.57
2022-11-29T03:11:42.526Z,-2.51
2022-11-29T03:15:05.582Z,-2.38
2022-11-29T03:18:37.088Z,-2.59
2022-11-29T03:22:08.770Z,-2.62
2022-11-29T03:25:27.466Z,-2.58
2022-11-29T03:28:44.603Z,-2.52
2022-11-29T03:32:03.582Z,-2.64
2022-11-29T03:35:18.289Z,-2.58
2022-11-29T03:38:40.171Z,-2.58
2022-11-29T03:41:56.378Z,-2.44
2022-11-29T03:45:14.864Z,-2.50
2022-11-29T03:48:32.470Z,-2.44
2022-11-29T03:51:57.578Z,-2.51
2022-11-29T03:55:34.567Z,-2.38
2022-11-29T03:59:00.585Z,-2.60
2022-11-29T04:02:48.874Z,-2.69
2022-11-29T04:06:33.614Z,-2.51
2022-11-29T04:10:17.020Z,-2.44
2022-11-29T04:14:14.219Z,-2.62
2022-11-29T04:18:05.676Z,-2.63
2022-11-29T04:21:45.171Z,-2.59
2022-11-29T04:25:44.459Z,-2.56
2022-11-29T04:29:36.690Z,-2.72
2022-11-29T04:33:33.493Z,-2.80
2022-11-29T04:37:26.517Z,-2.74
2022-11-29T04:41:08.700Z,-2.69
2022-11-29T04:44:44.090Z,-2.75
2022-11-29T04:48:09.413Z,-2.79
2022-11-29T04:51:38.430Z,-2.76
2022-11-29T04:55:00.271Z,-2.81
2022-11-29T04:58:26.340Z,-2.99
2022-11-29T05:01:53.960Z,-2.94
2022-11-29T05:05:21.585Z,-3.06
2022-11-29T05:08:47.966Z,-3.20
2022-11-29T05:12:15.181Z,-3.10
2022-11-29T05:15:53.436Z,-3.08
2022-11-29T05:19:31.746Z,-2.92
2022-11-29T05:22:59.352Z,-2.96
2022-11-29T05:26:19.659Z,-2.93
2022-11-29T05:29:43.337Z,-2.91
2022-11-29T05:33:15.356Z,-2.87
2022-11-29T05:36:40.944Z,-2.98
2022-11-29T05:40:21.042Z,-3.01
2022-11-29T05:44:04.709Z,-3.07
2022-11-29T05:47:21.377Z,-3.02
2022-11-29T05:50:41.065Z,-3.02
2022-11-29T05:54:07.429Z,-2.89
2022-11-29T05:57:31.623Z,-2.97
2022-11-29T06:00:52.761Z,-3.10
2022-11-29T06:04:13.311Z,-3.23
2022-11-29T06:07:38.369Z,-3.12
2022-11-29T06:11:00.980Z,-3.20
2022-11-29T06:14:22.019Z,-3.19
2022-11-29T06:18:00.148Z,-3.07
2022-11-29T06:21:26.071Z,-3.05
2022-11-29T06:25:04.556Z,-3.04
2022-11-29T06:28:43.005Z,-3.04
2022-11-29T06:31:59.218Z,-2.93
2022-11-29T06:35:22.870Z,-2.97
2022-11-29T06:38:33.021Z,-3.19
2022-11-29T06:41:42.863Z,-3.29
2022-11-29T06:44:50.466Z,-3.42
2022-11-29T06:48:06.952Z,-3.13
2022-11-29T06:51:29.155Z,-2.93
2022-11-29T06:55:03.487Z,-3.33
2022-11-29T06:58:40.000Z,-3.15
2022-11-29T07:02:00.723Z,-3.12
2022-11-29T07:05:24.982Z,-3.01
2022-11-29T07:08:32.010Z,-3.01
2022-11-29T07:11:40.214Z,-3.43
2022-11-29T07:14:50.253Z,-3.54
2022-11-29T07:18:18.182Z,-3.39
2022-11-29T07:21:49.058Z,-3.23
2022-11-29T07:25:14.200Z,-3.38
2022-11-29T07:28:44.539Z,-3.33
2022-11-29T07:32:12.218Z,-3.08
2022-11-29T07:35:30.313Z,-2.80
2022-11-29T07:39:03.181Z,-2.45
2022-11-29T07:42:24.672Z,-2.38
2022-11-29T07:45:36.377Z,-2.23
2022-11-29T07:48:45.831Z,-2.53
2022-11-29T07:51:52.576Z,-2.80
2022-11-29T07:54:59.916Z,-3.00
2022-11-29T07:58:06.233Z,-3.08
2022-11-29T08:01:13.297Z,-3.41
2022-11-29T08:04:23.258Z,-3.43
2022-11-29T08:07:29.700Z,-3.41
2022-11-29T08:10:37.103Z,-3.57
2022-11-29T08:13:43.196Z,-3.57
2022-11-29T08:16:50.166Z,-3.51
2022-11-29T08:20:02.651Z,-3.46
2022-11-29T08:23:15.460Z,-3.56
2022-11-29T08:26:29.732Z,-3.40
2022-11-29T08:29:38.387Z,-3.14
2022-11-29T08:32:48.530Z,-2.96
2022-11-29T08:36:09.046Z,-2.67
2022-11-29T08:39:15.305Z,-2.82
2022-11-29T08:42:22.287Z,-2.65
2022-11-29T08:45:28.702Z,-3.02
2022-11-29T08:48:37.237Z,-3.14
2022-11-29T08:51:46.202Z,-3.02
2022-11-29T08:54:50.545Z,-2.90
2022-11-29T08:58:03.204Z,-2.77
2022-11-29T09:01:18.588Z,-2.50
2022-11-29T09:04:25.356Z,-2.21
2022-11-29T09:07:35.266Z,-2.32
2022-11-29T09:10:42.776Z,-2.24
2022-11-29T09:13:53.394Z,-2.06
2022-11-29T09:16:59.418Z,-1.82
2022-11-29T09:20:08.587Z,-1.56
2022-11-29T09:23:17.234Z,-1.43
2022-11-29T09:26:24.283Z,-1.72
2022-11-29T09:29:30.367Z,-1.71
2022-11-29T09:32:38.793Z,-1.75
2022-11-29T09:35:45.492Z,-1.78
2022-11-29T09:38:55.104Z,-1.75
2022-11-29T09:42:30.565Z,-2.13
2022-11-29T09:45:48.100Z,-1.63
2022-11-29T09:49:26.000Z,-1.73
2022-11-29T09:52:52.988Z,-1.58
2022-11-29T09:56:26.243Z,-1.77
2022-11-29T09:59:43.017Z,-1.74
2022-11-29T10:02:57.045Z,-1.66
2022-11-29T10:06:14.935Z,-1.74
2022-11-29T10:09:34.208Z,-1.64
2022-11-29T10:15:59.884Z,-1.57
2022-11-29T10:19:22.835Z,-1.32
2022-11-29T10:22:43.927Z,-1.35
2022-11-29T10:25:54.052Z,-1.46
2022-11-29T10:29:01.972Z,-1.59
2022-11-29T10:32:19.964Z,-1.52
2022-11-29T10:35:27.568Z,-1.66
2022-11-29T10:38:34.428Z,-1.58
2022-11-29T10:41:40.380Z,-1.49
2022-11-29T10:44:47.610Z,-1.63
2022-11-29T10:48:00.908Z,-1.44
2022-11-29T10:51:20.557Z,-1.36
2022-11-29T10:54:43.112Z,-1.53
2022-11-29T10:58:13.045Z,-1.30
2022-11-29T11:01:20.704Z,-1.49
2022-11-29T11:04:46.623Z,-1.31
2022-11-29T11:08:01.921Z,-1.35
2022-11-29T11:11:11.976Z,-1.24
2022-11-29T11:14:25.697Z,-1.33
2022-11-29T11:17:37.880Z,-1.16
2022-11-29T11:20:56.552Z,-1.08
2022-11-29T11:24:06.485Z,-1.41
2022-11-29T11:27:12.740Z,-1.35
2022-11-29T11:30:27.493Z,-1.19
2022-11-29T11:33:37.010Z,-1.18
2022-11-29T11:36:46.733Z,-1.21
2022-11-29T11:39:56.961Z,-1.03
2022-11-29T11:43:06.260Z,-1.15
2022-11-29T11:46:17.751Z,-0.86
2022-11-29T11:49:33.930Z,-0.72
2022-11-29T11:52:50.892Z,-0.64
2022-11-29T11:56:05.125Z,-0.53
2022-11-29T11:59:24.680Z,-0.72
2022-11-29T12:02:42.356Z,-0.96
2022-11-29T12:05:52.026Z,-0.71
2022-11-29T12:09:14.168Z,-0.80
2022-11-29T12:12:28.334Z,-0.72
2022-11-29T12:15:45.586Z,-0.59
2022-11-29T12:18:59.353Z,-0.71
2022-11-29T12:22:21.178Z,-0.71
2022-11-29T12:25:43.265Z,-0.47
2022-11-29T12:28:51.568Z,-0.53
2022-11-29T12:32:25.646Z,-0.11
2022-11-29T12:35:55.369Z,0.49
2022-11-29T12:39:28.496Z,0.70
2022-11-29T12:42:58.219Z,0.43
2022-11-29T12:46:17.578Z,0.54
2022-11-29T12:49:43.774Z,0.89
2022-11-29T12:53:09.310Z,1.19
2022-11-29T12:56:25.101Z,1.72
2022-11-29T13:00:01.668Z,1.92
2022-11-29T13:03:30.771Z,1.82
2022-11-29T13:06:52.568Z,1.87
2022-11-29T13:10:31.403Z,1.12
2022-11-29T13:13:45.733Z,0.94
2022-11-29T13:17:03.934Z,0.68
2022-11-29T13:20:31.881Z,0.57
2022-11-29T13:24:11.651Z,0.27
2022-11-29T13:27:26.368Z,0.12
2022-11-29T13:30:34.524Z,-0.15
2022-11-29T13:34:01.885Z,-0.35
2022-11-29T13:37:26.781Z,-0.50
2022-11-29T13:40:48.109Z,-0.49
2022-11-29T13:44:11.421Z,-0.60
2022-11-29T13:47:21.227Z,-0.33
2022-11-29T13:50:46.824Z,-0.51
2022-11-29T13:53:54.533Z,-0.52
2022-11-29T13:57:09.876Z,-0.71
2022-11-29T14:00:32.706Z,-0.75
2022-11-29T14:03:43.527Z,-0.97
2022-11-29T14:07:05.829Z,-0.84
2022-11-29T14:10:29.437Z,-0.90
2022-11-29T14:13:52.384Z,-1.00
2022-11-29T14:17:04.363Z,-1.05
2022-11-29T14:20:57.264Z,-1.17
2022-11-29T14:24:43.135Z,-1.25
2022-11-29T14:28:07.037Z,-1.67
2022-11-29T14:31:14.648Z,-1.88
2022-11-29T14:34:48.876Z,-1.78
2022-11-29T14:38:15.940Z,-1.61
2022-11-29T14:41:41.202Z,-1.62
2022-11-29T14:44:54.117Z,-1.75
2022-11-29T14:48:02.040Z,-1.65
2022-11-29T14:51:17.614Z,-1.79
2022-11-29T14:54:23.995Z,-1.82
2022-11-29T14:58:15.808Z,-2.02
2022-11-29T15:01:27.447Z,-2.07
2022-11-29T15:04:38.908Z,-2.02
2022-11-29T15:08:00.360Z,-1.93
2022-11-29T15:11:20.944Z,-2.08
2022-11-29T15:14:50.450Z,-1.83
2022-11-29T15:18:22.767Z,-1.95
2022-11-29T15:21:43.064Z,-2.18
2022-11-29T15:24:57.350Z,-1.95
2022-11-29T15:28:06.064Z,-1.98
2022-11-29T15:31:21.782Z,-2.04
2022-11-29T15:34:36.683Z,-2.09
2022-11-29T15:37:48.662Z,-2.02
2022-11-29T15:40:58.730Z,-2.06
2022-11-29T15:44:08.964Z,-1.98
2022-11-29T15:47:24.275Z,-2.03
2022-11-29T15:50:38.009Z,-1.92
2022-11-29T15:54:00.455Z,-1.89
2022-11-29T15:57:29.408Z,-2.00
2022-11-29T16:00:36.641Z,-2.08
2022-11-29T16:03:49.873Z,-2.11
2022-11-29T16:07:00.756Z,-2.21
2022-11-29T16:10:21.266Z,-2.36
2022-11-29T16:13:38.393Z,-2.44
2022-11-29T16:16:52.692Z,-2.37
2022-11-29T16:20:31.587Z,-2.40
2022-11-29T16:23:43.690Z,-2.29
2022-11-29T16:26:53.480Z,-2.13
2022-11-29T16:30:01.700Z,-1.98
2022-11-29T16:33:14.028Z,-1.91
2022-11-29T16:36:31.143Z,-2.03
2022-11-29T16:39:42.628Z,-2.16
2022-11-29T16:43:24.387Z,-2.13
2022-11-29T16:46:42.167Z,-2.11
2022-11-29T16:50:09.231Z,-2.09
2022-11-29T16:53:37.825Z,-1.88
2022-11-29T16:56:50.683Z,-1.93
2022-11-29T16:59:57.147Z,-2.01
2022-11-29T17:03:04.539Z,-1.91
2022-11-29T17:06:15.636Z,-2.11
2022-11-29T17:09:30.801Z,-2.14
2022-11-29T17:12:43.446Z,-2.13
2022-11-29T17:15:54.854Z,-1.99
2022-11-29T17:19:01.132Z,-1.88
2022-11-29T17:22:09.614Z,-1.92
2022-11-29T17:25:16.260Z,-1.90
2022-11-29T17:28:26.352Z,-2.01
2022-11-29T17:31:33.953Z,-1.88
2022-11-29T17:34:43.038Z,-2.16
2022-11-29T17:37:50.071Z,-2.08
2022-11-29T17:40:57.621Z,-2.06
2022-11-29T17:44:07.213Z,-1.92
2022-11-29T17:47:14.502Z,-2.15
2022-11-29T17:50:21.244Z,-2.03
2022-11-29T17:53:28.675Z,-1.98
2022-11-29T17:56:35.848Z,-1.91
2022-11-29T17:59:45.647Z,-2.02
2022-11-29T18:02:51.992Z,-2.02
2022-11-29T18:06:02.939Z,-2.10
2022-11-29T18:09:13.632Z,-2.19
2022-11-29T18:12:20.806Z,-2.29
2022-11-29T18:18:41.393Z,-2.40
2022-11-29T18:21:49.287Z,-2.24
2022-11-29T18:25:15.882Z,-2.11
2022-11-29T18:28:22.459Z,-1.96
2022-11-29T18:31:35.284Z,-1.84
2022-11-29T18:34:45.244Z,-1.70
2022-11-29T18:38:14.034Z,-1.71
2022-11-29T18:41:22.698Z,-1.91
2022-11-29T18:44:30.089Z,-1.94
2022-11-29T18:47:36.962Z,-1.98
2022-11-29T18:50:46.759Z,-1.88
2022-11-29T18:53:53.831Z,-1.99
2022-11-29T18:56:59.976Z,-1.93
2022-11-29T19:00:09.257Z,-1.90
2022-11-29T19:03:15.230Z,-1.81
2022-11-29T19:06:28.322Z,-1.71
2022-11-29T19:09:34.395Z,-1.66
2022-11-29T19:12:41.307Z,-1.65
2022-11-29T19:15:54.154Z,-1.59
2022-11-29T19:19:03.951Z,-1.60
2022-11-29T19:22:13.660Z,-1.55
2022-11-29T19:25:20.685Z,-1.58
2022-11-29T19:28:27.470Z,-1.78
2022-11-29T19:31:35.004Z,-1.77
2022-11-29T19:34:41.709Z,-1.69
2022-11-29T19:37:51.573Z,-1.55
2022-11-29T19:40:57.641Z,-1.52
2022-11-29T19:44:08.509Z,-1.62
2022-11-29T19:47:15.127Z,-1.68
2022-11-29T19:50:22.156Z,-1.65
2022-11-29T19:53:31.147Z,-1.69
2022-11-29T19:56:39.104Z,-1.79
2022-11-29T19:59:45.643Z,-1.78
2022-11-29T20:02:52.988Z,-1.81
2022-11-29T20:05:59.802Z,-1.73
2022-11-29T20:09:10.773Z,-1.49
2022-11-29T20:12:16.895Z,-1.37
2022-11-29T20:15:23.845Z,-1.21
2022-11-29T20:18:34.846Z,-1.23
2022-11-29T20:21:48.902Z,-1.34
2022-11-29T20:24:58.121Z,-1.58
2022-11-29T20:28:08.118Z,-1.69
2022-11-29T20:31:21.549Z,-1.48
2022-11-29T20:34:29.465Z,-1.32
2022-11-29T20:38:07.482Z,-1.34
2022-11-29T20:41:30.266Z,-1.36
2022-11-29T20:44:42.241Z,-1.26
2022-11-29T20:47:59.795Z,-1.35
2022-11-29T20:51:07.389Z,-1.43
2022-11-29T20:54:15.604Z,-1.31
2022-11-29T20:57:25.149Z,-1.32
2022-11-29T21:00:32.259Z,-1.52
2022-11-29T21:03:38.542Z,-1.62
2022-11-29T21:06:45.929Z,-1.50
2022-11-29T21:09:55.438Z,-1.55
2022-11-29T21:13:08.474Z,-1.54
2022-11-29T21:16:17.854Z,-1.49
2022-11-29T21:19:29.578Z,-1.43
2022-11-29T21:22:54.787Z,-1.34
2022-11-29T21:26:16.187Z,-1.46
2022-11-29T21:29:27.133Z,-1.52
2022-11-29T21:32:35.768Z,-1.55
2022-11-29T21:35:43.139Z,-1.61
2022-11-29T21:38:54.892Z,-1.55
2022-11-29T21:42:01.484Z,-1.63
2022-11-29T21:45:15.633Z,-1.57
2022-11-29T21:48:34.695Z,-1.58
2022-11-29T21:51:41.618Z,-1.63
2022-11-29T21:54:48.475Z,-1.63
2022-11-29T21:57:56.059Z,-1.65
2022-11-29T22:01:14.304Z,-1.58
2022-11-29T22:04:21.956Z,-1.67
2022-11-29T22:07:28.162Z,-1.49
2022-11-29T22:10:35.322Z,-1.45
2022-11-29T22:14:03.939Z,-1.31
2022-11-29T22:17:13.403Z,-1.23
2022-11-29T22:20:19.753Z,-1.12
2022-11-29T22:23:26.622Z,-1.13
2022-11-29T22:26:32.744Z,-1.22
2022-11-29T22:29:39.527Z,-1.31
2022-11-29T22:32:48.410Z,-1.45
2022-11-29T22:35:55.327Z,-1.50
2022-11-29T22:39:01.591Z,-1.45
2022-11-29T22:42:08.709Z,-1.29
2022-11-29T22:45:15.123Z,-1.24
2022-11-29T22:48:24.612Z,-1.36
2022-11-29T22:51:34.008Z,-1.34
2022-11-29T22:54:40.911Z,-1.47
2022-11-29T22:57:47.024Z,-1.73
2022-11-29T23:00:53.999Z,-1.58
2022-11-29T23:04:06.327Z,-1.62
2022-11-29T23:07:13.209Z,-1.78
2022-11-29T23:10:19.548Z,-1.67
2022-11-29T23:13:28.273Z,-1.73
2022-11-29T23:16:36.000Z,-1.83
2022-11-29T23:19:46.015Z,-1.68
2022-11-29T23:22:52.216Z,-1.50
2022-11-29T23:25:59.159Z,-1.36
2022-11-29T23:29:06.237Z,-1.35
2022-11-29T23:32:13.300Z,-1.50
2022-11-29T23:35:24.298Z,-1.41
2022-11-29T23:38:31.831Z,-1.54
2022-11-29T23:41:39.608Z,-1.50
2022-11-29T23:44:46.655Z,-1.55
2022-11-29T23:47:53.053Z,-1.41
2022-11-29T23:51:02.675Z,-1.40
2022-11-29T23:54:09.182Z,-1.39
2022-11-29T23:57:16.040Z,-1.49
